KCOF/COF METAR and TAF weather

Enter ICAO airport designator
Station Type Date Time Source
KCOF METAR 2019/12/11 16:56 UTC NOAA

KCOF 111656Z AUTO 36003KT 10SM CLR 28/25 A3019 RMK AO2 SLP228 T02750245 $


Station Type Date Time Source
KCOF Decoded METAR 2019/12/11 16:56 UTC NOAA

Cocoa / Patrick Air Force Base, FL, United States (KCOF) 28-14N 080-36W 3M
Dec 11, 2019 - 11:56 AM EST / 2019.12.11 1656 UTC
Wind: from the N (360 degrees) at 3 MPH (3 KT):0
Visibility: 10 mile(s):0
Sky conditions: clear
Temperature: 81.5 F (27.5 C)
Dew Point: 76.1 F (24.5 C)
Relative Humidity: 83%
Pressure (altimeter): 30.19 in. Hg (1022 hPa)
ob: KCOF 111656Z AUTO 36003KT 10SM CLR 28/25 A3019 RMK AO2 SLP228 T02750245
cycle: 17

Station Type Date Time Source
KCOF TAF 2019/12/11 12:57 UTC NOAA

TAF TAF
AMD KCOF 111252Z 1112/1217 25006KT 0800 FG VV000 QNH3016INS
TEMPO 1112/1114 2400 BR
BECMG 1114/1115 25006KT 9999 NSW SCT020 QNH3016INS
BECMG 1117/1118 36015G20KT 6000 -SHRA BKN015 QNH3017INS
BECMG 1122/1123 02015G20KT 9999 VCSH BKN015 QNH3018INS
TEMPO 1200/1205 03015G25KT 6000 -SHRA
BECMG 1207/1208 05015G25KT 9999 NSW BKN015 QNH3020INS TX26/1117Z TN20/1209Z

Example: see airport list